Terminal Aerodrome Forecast
Issued by NWS Duluth, MN

Home | Current Version | Previous Version | Text Only | Print | Product List | Glossary On
Versions: 1 2 3 4 5 6 7 8 9 10 11 12 13 14 15 16 17 18 19 20 21 22 23 24 25 26 27 28 29 30
000
FTUS43 KDLH 260905 AAC
TAFDLH
TAF AMD
KDLH 260905Z 2609/2706 24009KT 1 1/2SM -SN BR OVC015
     FM261000 24008KT 5SM -SN OVC015
     FM261700 30012KT P6SM SCT025 BKN050
     FM270000 29005KT P6SM SCT050 SCT100=

USA.gov is the U.S. government's official web portal to all federal, state and local government web resources and services.